createdAt,value
2023-05-25T00:01:07.531Z,71.83
2023-05-25T00:03:53.467Z,70.96
2023-05-25T00:06:38.844Z,70.49
2023-05-25T00:09:25.064Z,69.64
2023-05-25T00:12:10.938Z,70.84
2023-05-25T00:14:56.607Z,70.69
2023-05-25T00:17:42.992Z,70.86
2023-05-25T00:20:28.710Z,71.57
2023-05-25T00:23:13.743Z,71.91
2023-05-25T00:25:59.877Z,71.49
2023-05-25T00:28:45.501Z,69.91
2023-05-25T00:31:30.854Z,69.69
2023-05-25T00:34:16.221Z,70.00
2023-05-25T00:37:02.153Z,70.20
2023-05-25T00:39:47.873Z,70.75
2023-05-25T00:42:33.852Z,69.92
2023-05-25T00:45:19.320Z,71.36
2023-05-25T00:48:05.207Z,71.49
2023-05-25T00:50:55.131Z,72.15
2023-05-25T00:53:43.659Z,71.93
2023-05-25T00:56:32.133Z,72.48
2023-05-25T00:59:39.671Z,72.07
2023-05-25T01:02:26.314Z,71.52
2023-05-25T01:05:12.325Z,71.65
2023-05-25T01:08:00.873Z,71.92
2023-05-25T01:10:49.357Z,71.13
2023-05-25T01:13:34.972Z,71.35
2023-05-25T01:16:20.882Z,71.61
2023-05-25T01:19:06.464Z,71.89
2023-05-25T01:22:05.042Z,71.99
2023-05-25T01:24:59.008Z,71.16
2023-05-25T01:27:50.907Z,70.27
2023-05-25T01:30:40.089Z,72.06
2023-05-25T01:33:27.612Z,72.76
2023-05-25T01:36:12.867Z,71.07
2023-05-25T01:38:58.863Z,72.34
2023-05-25T01:41:44.539Z,72.75
2023-05-25T01:44:30.386Z,72.69
2023-05-25T01:47:29.027Z,72.46
2023-05-25T01:50:38.280Z,73.69
2023-05-25T01:53:43.043Z,72.31
2023-05-25T01:56:30.732Z,71.86
2023-05-25T01:59:21.513Z,72.02
2023-05-25T02:02:07.739Z,72.19
2023-05-25T02:04:53.910Z,72.69
2023-05-25T02:07:41.626Z,72.47
2023-05-25T02:10:27.396Z,71.75
2023-05-25T02:13:12.974Z,70.13
2023-05-25T02:15:58.587Z,71.95
2023-05-25T02:18:43.879Z,72.72
2023-05-25T02:21:29.257Z,72.48
2023-05-25T02:24:14.440Z,72.16
2023-05-25T02:26:59.695Z,72.98
2023-05-25T02:29:45.327Z,73.05
2023-05-25T02:32:30.573Z,73.31
2023-05-25T02:35:16.461Z,72.57
2023-05-25T02:38:01.686Z,72.13
2023-05-25T02:40:47.370Z,71.30
2023-05-25T02:43:32.827Z,71.35
2023-05-25T02:46:18.395Z,70.60
2023-05-25T02:49:03.791Z,71.37
2023-05-25T02:51:49.272Z,70.43
2023-05-25T02:54:35.060Z,72.40
2023-05-25T02:57:20.418Z,72.84
2023-05-25T03:00:06.467Z,72.86
2023-05-25T03:02:52.588Z,73.16
2023-05-25T03:05:38.507Z,72.30
2023-05-25T03:08:24.444Z,71.88
2023-05-25T03:11:10.094Z,71.34
2023-05-25T03:13:56.532Z,72.89
2023-05-25T03:16:42.383Z,72.75
2023-05-25T03:19:28.002Z,72.66
2023-05-25T03:22:13.469Z,73.36
2023-05-25T03:24:58.795Z,72.77
2023-05-25T03:27:44.102Z,72.89
2023-05-25T03:30:29.319Z,71.59
2023-05-25T03:33:15.257Z,72.85
2023-05-25T03:36:09.199Z,72.53
2023-05-25T03:38:54.471Z,72.36
2023-05-25T03:41:40.543Z,72.08
2023-05-25T03:44:26.681Z,73.27
2023-05-25T03:47:12.257Z,72.58
2023-05-25T03:49:57.799Z,72.77
2023-05-25T03:52:43.456Z,73.71
2023-05-25T03:55:29.081Z,73.03
2023-05-25T03:58:14.544Z,71.54
2023-05-25T04:00:59.713Z,72.41
2023-05-25T04:03:45.705Z,74.73
2023-05-25T04:06:31.189Z,74.37
2023-05-25T04:09:16.424Z,75.02
2023-05-25T04:12:01.798Z,74.00
2023-05-25T04:14:48.101Z,73.12
2023-05-25T04:17:33.797Z,73.44
2023-05-25T04:20:19.367Z,73.97
2023-05-25T04:23:05.083Z,75.61
2023-05-25T04:25:52.011Z,73.63
2023-05-25T04:28:37.397Z,73.82
2023-05-25T04:31:37.799Z,72.67
2023-05-25T04:34:32.343Z,72.02
2023-05-25T04:37:23.647Z,72.62
2023-05-25T04:40:09.380Z,71.60
2023-05-25T04:42:54.842Z,70.44
2023-05-25T04:45:40.582Z,70.30
2023-05-25T04:48:26.662Z,70.85
2023-05-25T04:51:12.555Z,71.28
2023-05-25T04:53:59.322Z,69.69
2023-05-25T04:56:44.514Z,68.64
2023-05-25T04:59:30.034Z,69.91
2023-05-25T05:02:16.233Z,70.90
2023-05-25T05:05:01.798Z,69.18
2023-05-25T05:07:47.404Z,70.32
2023-05-25T05:10:32.980Z,69.94
2023-05-25T05:13:18.646Z,70.04
2023-05-25T05:16:04.550Z,70.00
2023-05-25T05:18:50.499Z,71.45
2023-05-25T05:21:37.318Z,71.76
2023-05-25T05:24:24.871Z,73.51
2023-05-25T05:27:13.934Z,73.11
2023-05-25T05:30:06.632Z,75.27
2023-05-25T05:32:52.236Z,74.43
2023-05-25T05:35:39.754Z,73.92
2023-05-25T05:38:29.891Z,74.14
2023-05-25T05:41:15.398Z,73.62
2023-05-25T05:44:06.741Z,74.30
2023-05-25T05:46:52.015Z,77.88
2023-05-25T05:49:37.379Z,76.29
2023-05-25T05:52:22.905Z,74.99
2023-05-25T05:55:08.819Z,78.02
2023-05-25T05:57:56.496Z,75.24
2023-05-25T06:00:42.448Z,75.27
2023-05-25T06:03:28.114Z,76.59
2023-05-25T06:06:13.867Z,74.01
2023-05-25T06:08:59.359Z,71.64
2023-05-25T06:11:45.005Z,69.88
2023-05-25T06:14:30.993Z,73.58
2023-05-25T06:17:19.774Z,73.89
2023-05-25T06:20:05.781Z,72.31
2023-05-25T06:22:51.384Z,73.30
2023-05-25T06:25:37.704Z,70.36
2023-05-25T06:28:24.249Z,69.63
2023-05-25T06:31:09.973Z,72.77
2023-05-25T06:33:56.211Z,71.15
2023-05-25T06:36:41.787Z,70.60
2023-05-25T06:39:28.747Z,70.15
2023-05-25T06:42:14.148Z,70.70
2023-05-25T06:45:10.823Z,70.89
2023-05-25T06:47:56.198Z,69.96
2023-05-25T06:50:41.651Z,75.86
2023-05-25T06:53:29.435Z,76.41
2023-05-25T06:56:14.573Z,72.88
2023-05-25T06:58:59.811Z,67.22
2023-05-25T07:01:48.831Z,68.48
2023-05-25T07:04:34.007Z,69.81
2023-05-25T07:07:19.278Z,70.81
2023-05-25T07:10:05.782Z,67.19
2023-05-25T07:12:51.931Z,67.10
2023-05-25T07:15:40.950Z,67.58
2023-05-25T07:18:26.414Z,65.23
2023-05-25T07:21:11.998Z,68.38
2023-05-25T07:23:57.442Z,64.27
2023-05-25T07:26:42.722Z,66.02
2023-05-25T07:29:28.468Z,67.37
2023-05-25T07:32:13.949Z,67.89
2023-05-25T07:34:59.895Z,66.36
2023-05-25T07:37:47.598Z,64.15
2023-05-25T07:40:32.923Z,64.96
2023-05-25T07:43:18.684Z,65.58
2023-05-25T07:46:04.212Z,68.03
2023-05-25T07:48:49.417Z,69.12
2023-05-25T07:51:34.955Z,65.74
2023-05-25T07:54:20.575Z,65.38
2023-05-25T07:57:06.327Z,65.76
2023-05-25T07:59:51.704Z,66.10
2023-05-25T08:02:37.025Z,66.59
2023-05-25T08:05:22.969Z,64.65
2023-05-25T08:08:08.271Z,60.96
2023-05-25T08:10:54.336Z,61.44
2023-05-25T08:13:39.854Z,62.11
2023-05-25T08:16:25.341Z,64.85
2023-05-25T08:19:10.567Z,64.49
2023-05-25T08:21:55.824Z,65.50
2023-05-25T08:24:41.380Z,67.55
2023-05-25T08:27:26.753Z,64.81
2023-05-25T08:30:12.736Z,63.98
2023-05-25T08:32:58.360Z,63.21
2023-05-25T08:35:44.168Z,62.32
2023-05-25T08:38:29.910Z,61.54
2023-05-25T08:41:15.523Z,60.96
2023-05-25T08:44:01.043Z,62.26
2023-05-25T08:46:48.204Z,61.60
2023-05-25T08:49:37.940Z,62.84
2023-05-25T08:52:27.608Z,65.95
2023-05-25T08:55:14.740Z,67.23
2023-05-25T08:58:16.955Z,64.26
2023-05-25T09:01:08.080Z,59.00
2023-05-25T09:03:55.310Z,59.44
2023-05-25T09:06:40.911Z,57.75
2023-05-25T09:09:27.228Z,57.18
2023-05-25T09:12:12.904Z,58.82
2023-05-25T09:14:59.059Z,56.38
2023-05-25T09:17:44.386Z,56.86
2023-05-25T09:20:29.632Z,56.26
2023-05-25T09:23:15.460Z,54.84
2023-05-25T09:26:01.501Z,54.54
2023-05-25T09:28:49.140Z,56.23
2023-05-25T09:31:34.617Z,52.16
2023-05-25T09:34:20.143Z,54.19
2023-05-25T09:37:12.441Z,54.16
2023-05-25T09:39:57.811Z,54.85
2023-05-25T09:42:43.090Z,52.10
2023-05-25T09:45:28.292Z,55.13
2023-05-25T09:48:14.258Z,54.80
2023-05-25T09:50:59.560Z,55.73
2023-05-25T09:53:45.403Z,56.00
2023-05-25T09:56:32.325Z,55.39
2023-05-25T09:59:18.068Z,53.77
2023-05-25T10:02:03.731Z,54.32
2023-05-25T10:04:49.681Z,55.10
2023-05-25T10:07:36.525Z,54.16
2023-05-25T10:10:22.383Z,56.39
2023-05-25T10:13:08.446Z,54.75
2023-05-25T10:15:54.705Z,50.15
2023-05-25T10:18:48.409Z,52.82
2023-05-25T10:21:36.328Z,50.95
2023-05-25T10:24:29.492Z,50.50
2023-05-25T10:27:26.808Z,51.81
2023-05-25T10:30:14.368Z,50.93
2023-05-25T10:33:01.850Z,47.60
2023-05-25T10:36:02.338Z,47.17
2023-05-25T10:38:55.073Z,47.64
2023-05-25T10:41:42.018Z,47.65
2023-05-25T10:44:30.034Z,49.49
2023-05-25T10:47:16.887Z,48.15
2023-05-25T10:50:02.319Z,48.73
2023-05-25T10:52:58.144Z,48.39
2023-05-25T10:55:53.473Z,48.83
2023-05-25T10:58:43.019Z,48.82
2023-05-25T11:01:31.193Z,48.87
2023-05-25T11:04:16.911Z,48.98
2023-05-25T11:07:01.976Z,48.79
2023-05-25T11:09:57.381Z,47.52
2023-05-25T11:12:42.771Z,47.53
2023-05-25T11:15:29.971Z,49.22
2023-05-25T11:18:16.020Z,47.58
2023-05-25T11:21:36.752Z,48.02
2023-05-25T11:24:22.870Z,48.38
2023-05-25T11:27:09.531Z,54.26
2023-05-25T11:29:57.007Z,47.98
2023-05-25T11:32:49.081Z,48.26
2023-05-25T11:35:35.215Z,47.47
2023-05-25T11:38:24.681Z,47.75
2023-05-25T11:41:20.500Z,48.42
2023-05-25T11:44:06.902Z,47.72
2023-05-25T11:46:53.344Z,46.94
2023-05-25T11:49:42.856Z,48.61
2023-05-25T11:52:28.375Z,49.88
2023-05-25T11:55:14.321Z,49.44
2023-05-25T11:58:00.192Z,49.04
2023-05-25T12:00:45.789Z,47.41
2023-05-25T12:03:31.779Z,46.78
2023-05-25T12:06:28.475Z,46.21
2023-05-25T12:09:13.708Z,45.57
2023-05-25T12:12:00.233Z,47.22
2023-05-25T12:14:49.991Z,46.71
2023-05-25T12:17:35.480Z,48.38
2023-05-25T12:20:21.642Z,45.97
2023-05-25T12:23:07.312Z,47.36
2023-05-25T12:26:10.523Z,48.93
2023-05-25T12:29:08.605Z,49.26
2023-05-25T12:31:54.125Z,46.63
2023-05-25T12:34:39.928Z,47.57
2023-05-25T12:37:25.194Z,47.48
2023-05-25T12:40:18.604Z,47.81
2023-05-25T12:43:03.919Z,46.52
2023-05-25T12:45:49.223Z,45.66
2023-05-25T12:48:34.669Z,45.57
2023-05-25T12:51:20.354Z,44.90
2023-05-25T12:54:05.721Z,44.79
2023-05-25T12:56:57.520Z,43.48
2023-05-25T12:59:46.196Z,45.18
2023-05-25T13:02:31.875Z,46.12
2023-05-25T13:05:18.746Z,45.36
2023-05-25T13:08:05.230Z,45.05
2023-05-25T13:10:52.937Z,46.17
2023-05-25T13:13:38.412Z,43.25
2023-05-25T13:16:23.690Z,43.86
2023-05-25T13:19:08.957Z,43.62
2023-05-25T13:21:56.504Z,44.79
2023-05-25T13:24:41.794Z,45.55
2023-05-25T13:27:26.929Z,42.92
2023-05-25T13:30:12.819Z,43.42
2023-05-25T13:32:58.144Z,42.57
2023-05-25T13:35:43.240Z,43.95
2023-05-25T13:38:30.266Z,43.82
2023-05-25T13:41:16.446Z,45.06
2023-05-25T13:44:01.908Z,44.57
2023-05-25T13:46:47.405Z,42.57
2023-05-25T13:49:32.597Z,45.86
2023-05-25T13:52:18.198Z,44.19
2023-05-25T13:55:04.116Z,43.33
2023-05-25T13:57:49.462Z,43.97
2023-05-25T14:00:35.380Z,44.57
2023-05-25T14:03:20.891Z,43.18
2023-05-25T14:06:06.122Z,43.00
2023-05-25T14:08:51.729Z,43.15
2023-05-25T14:11:37.442Z,45.65
2023-05-25T14:14:31.319Z,43.59
2023-05-25T14:17:17.860Z,43.00
2023-05-25T14:20:03.878Z,43.78
2023-05-25T14:22:49.424Z,44.58
2023-05-25T14:25:35.150Z,43.29
2023-05-25T14:28:20.214Z,44.34
2023-05-25T14:31:05.917Z,42.73
2023-05-25T14:33:51.319Z,43.17
2023-05-25T14:36:36.730Z,43.13
2023-05-25T14:39:22.106Z,43.95
2023-05-25T14:42:07.688Z,43.48
2023-05-25T14:44:53.052Z,42.91
2023-05-25T14:47:38.393Z,45.74
2023-05-25T14:50:23.818Z,45.22
2023-05-25T14:53:12.043Z,45.45
2023-05-25T14:55:57.556Z,45.68
2023-05-25T14:58:42.965Z,46.33
2023-05-25T15:01:28.796Z,45.14
2023-05-25T15:04:14.256Z,44.86
2023-05-25T15:06:59.800Z,45.45
2023-05-25T15:09:45.009Z,44.41
2023-05-25T15:12:30.221Z,44.11
2023-05-25T15:15:15.426Z,45.00
2023-05-25T15:18:00.751Z,44.29
2023-05-25T15:20:46.674Z,43.34
2023-05-25T15:23:31.981Z,45.10
2023-05-25T15:26:17.437Z,45.95
2023-05-25T15:29:02.441Z,45.78
2023-05-25T15:31:50.901Z,46.31
2023-05-25T15:34:36.464Z,46.16
2023-05-25T15:37:22.012Z,46.97
2023-05-25T15:40:08.187Z,46.52
2023-05-25T15:42:53.935Z,46.56
2023-05-25T15:45:39.234Z,46.58
2023-05-25T15:48:26.316Z,45.49
2023-05-25T15:51:12.379Z,46.48
2023-05-25T15:53:58.125Z,47.70
2023-05-25T15:56:43.963Z,47.28
2023-05-25T15:59:29.375Z,47.49
2023-05-25T16:02:15.128Z,47.35
2023-05-25T16:05:01.884Z,47.09
2023-05-25T16:07:47.116Z,46.74
2023-05-25T16:10:32.791Z,47.17
2023-05-25T16:13:18.479Z,44.86
2023-05-25T16:16:04.443Z,46.56
2023-05-25T16:18:50.972Z,48.12
2023-05-25T16:21:37.981Z,48.95
2023-05-25T16:24:25.553Z,48.91
2023-05-25T16:27:12.223Z,48.97
2023-05-25T16:29:58.458Z,47.72
2023-05-25T16:32:44.130Z,47.72
2023-05-25T16:35:29.864Z,47.67
2023-05-25T16:38:15.176Z,47.79
2023-05-25T16:41:00.550Z,48.21
2023-05-25T16:43:45.779Z,48.31
2023-05-25T16:46:31.593Z,48.07
2023-05-25T16:49:17.044Z,48.49
2023-05-25T16:52:02.331Z,50.22
2023-05-25T16:54:47.818Z,50.30
2023-05-25T16:57:33.620Z,51.71
2023-05-25T17:00:19.486Z,51.88
2023-05-25T17:03:05.189Z,52.21
2023-05-25T17:05:52.360Z,51.69
2023-05-25T17:08:38.903Z,51.97
2023-05-25T17:11:24.764Z,52.27
2023-05-25T17:14:10.225Z,52.59
2023-05-25T17:16:55.635Z,53.54
2023-05-25T17:19:40.889Z,53.92
2023-05-25T17:22:26.230Z,54.54
2023-05-25T17:25:11.652Z,54.69
2023-05-25T17:27:56.977Z,55.13
2023-05-25T17:30:42.746Z,54.74
2023-05-25T17:33:27.976Z,54.69
2023-05-25T17:36:13.648Z,54.75
2023-05-25T17:38:59.203Z,55.40
2023-05-25T17:41:45.084Z,56.05
2023-05-25T17:44:31.061Z,56.32
2023-05-25T17:47:16.633Z,57.49
2023-05-25T17:50:02.078Z,58.27
2023-05-25T17:52:47.465Z,57.98
2023-05-25T17:55:33.242Z,57.97
2023-05-25T17:58:19.020Z,56.21
2023-05-25T18:01:05.112Z,55.96
2023-05-25T18:03:51.634Z,55.29
2023-05-25T18:06:37.673Z,57.00
2023-05-25T18:09:23.428Z,56.74
2023-05-25T18:12:09.359Z,56.50
2023-05-25T18:14:55.281Z,56.63
2023-05-25T18:17:41.190Z,56.45
2023-05-25T18:20:26.679Z,56.98
2023-05-25T18:23:12.957Z,57.56
2023-05-25T18:25:58.631Z,57.92
2023-05-25T18:28:44.034Z,56.97
2023-05-25T18:31:30.403Z,57.72
2023-05-25T18:34:15.734Z,58.47
2023-05-25T18:37:01.388Z,58.41
2023-05-25T18:39:46.869Z,58.79
2023-05-25T18:42:32.718Z,59.21
2023-05-25T18:45:18.542Z,59.60
2023-05-25T18:48:04.327Z,61.27
2023-05-25T18:50:50.021Z,61.13
2023-05-25T18:53:35.529Z,62.09
2023-05-25T18:56:21.126Z,62.23
2023-05-25T18:59:07.222Z,62.25
2023-05-25T19:01:52.921Z,61.29
2023-05-25T19:04:38.266Z,61.90
2023-05-25T19:07:23.620Z,61.67
2023-05-25T19:10:09.997Z,61.51
2023-05-25T19:12:55.574Z,61.95
2023-05-25T19:15:41.591Z,62.46
2023-05-25T19:18:27.059Z,62.71
2023-05-25T19:21:12.733Z,63.14
2023-05-25T19:23:58.407Z,62.64
2023-05-25T19:26:43.673Z,62.37
2023-05-25T19:29:29.345Z,62.36
2023-05-25T19:32:16.544Z,62.77
2023-05-25T19:35:02.433Z,62.49
2023-05-25T19:37:47.897Z,62.63
2023-05-25T19:40:35.088Z,62.05
2023-05-25T19:43:20.357Z,62.76
2023-05-25T19:46:05.934Z,63.62
2023-05-25T19:48:51.130Z,63.70
2023-05-25T19:51:36.675Z,63.83
2023-05-25T19:54:22.334Z,63.78
2023-05-25T19:57:07.660Z,64.05
2023-05-25T19:59:53.494Z,64.80
2023-05-25T20:02:39.025Z,64.68
2023-05-25T20:05:24.189Z,64.43
2023-05-25T20:08:09.685Z,65.05
2023-05-25T20:10:55.390Z,64.97
2023-05-25T20:13:40.455Z,64.90
2023-05-25T20:16:26.541Z,65.27
2023-05-25T20:19:11.815Z,65.82
2023-05-25T20:21:56.748Z,66.13
2023-05-25T20:24:42.525Z,65.65
2023-05-25T20:27:28.690Z,65.31
2023-05-25T20:30:15.680Z,65.56
2023-05-25T20:33:01.930Z,66.26
2023-05-25T20:35:47.321Z,67.37
2023-05-25T20:38:32.976Z,67.21
2023-05-25T20:41:18.858Z,66.57
2023-05-25T20:44:04.547Z,65.23
2023-05-25T20:46:49.955Z,64.99
2023-05-25T20:49:35.407Z,64.78
2023-05-25T20:52:20.499Z,64.06
2023-05-25T20:55:06.056Z,64.25
2023-05-25T20:57:51.202Z,63.85
2023-05-25T21:00:37.071Z,63.16
2023-05-25T21:03:22.231Z,62.54
2023-05-25T21:06:08.228Z,63.40
2023-05-25T21:08:55.406Z,64.94
2023-05-25T21:11:40.613Z,66.74
2023-05-25T21:14:26.716Z,66.01
2023-05-25T21:17:12.389Z,65.64
2023-05-25T21:19:58.098Z,67.70
2023-05-25T21:22:43.633Z,67.42
2023-05-25T21:25:29.739Z,68.22
2023-05-25T21:28:15.068Z,67.84
2023-05-25T21:31:00.755Z,68.27
2023-05-25T21:33:46.834Z,68.47
2023-05-25T21:36:32.562Z,67.79
2023-05-25T21:39:18.031Z,67.12
2023-05-25T21:42:03.805Z,65.84
2023-05-25T21:44:49.224Z,65.50
2023-05-25T21:47:34.442Z,64.96
2023-05-25T21:50:19.810Z,64.56
2023-05-25T21:53:05.013Z,65.42
2023-05-25T21:55:50.750Z,64.99
2023-05-25T21:58:36.518Z,65.15
2023-05-25T22:01:23.540Z,66.40
2023-05-25T22:04:08.903Z,67.04
2023-05-25T22:06:54.401Z,66.55
2023-05-25T22:09:39.901Z,67.02
2023-05-25T22:12:25.465Z,67.21
2023-05-25T22:15:10.923Z,66.81
2023-05-25T22:17:56.669Z,66.54
2023-05-25T22:20:42.482Z,67.75
2023-05-25T22:23:27.859Z,68.44
2023-05-25T22:26:13.492Z,67.26
2023-05-25T22:28:58.753Z,66.57
2023-05-25T22:31:44.289Z,66.41
2023-05-25T22:34:29.811Z,66.47
2023-05-25T22:37:15.558Z,66.10
2023-05-25T22:40:00.969Z,66.69
2023-05-25T22:42:46.438Z,66.98
2023-05-25T22:45:32.190Z,67.31
2023-05-25T22:48:17.705Z,67.98
2023-05-25T22:51:03.163Z,66.98
2023-05-25T22:53:48.459Z,67.31
2023-05-25T22:56:34.088Z,67.76
2023-05-25T22:59:19.484Z,68.34
2023-05-25T23:02:05.443Z,68.51
2023-05-25T23:04:51.281Z,68.88
2023-05-25T23:07:38.140Z,70.98
2023-05-25T23:10:23.331Z,70.33
2023-05-25T23:13:08.650Z,69.43
2023-05-25T23:15:54.286Z,69.82
2023-05-25T23:18:39.834Z,69.51
2023-05-25T23:21:25.243Z,69.37
2023-05-25T23:24:11.016Z,69.64
2023-05-25T23:26:56.303Z,69.85
2023-05-25T23:29:41.921Z,69.97
2023-05-25T23:32:27.444Z,69.41
2023-05-25T23:35:12.525Z,69.83
2023-05-25T23:37:57.753Z,69.34
2023-05-25T23:40:43.671Z,68.55
2023-05-25T23:43:29.130Z,68.81
2023-05-25T23:46:14.687Z,68.56
2023-05-25T23:48:59.958Z,67.88
2023-05-25T23:51:45.589Z,67.47
2023-05-25T23:54:31.058Z,68.41
2023-05-25T23:57:16.935Z,67.91
